sensor_id;sensor_type;location;lat;lon;timestamp;pressure;altitude;pressure_sealevel;temperature;humidity
43181;BME280;28798;54.950;26.362;2022-08-19T00:07:51;997.9;;;20.7;77.9
43181;BME280;28798;54.950;26.362;2022-08-19T00:12:57;997.9;;;20.7;77.9
43181;BME280;28798;54.950;26.362;2022-08-19T00:17:57;997.9;;;20.7;77.9
43181;BME280;28798;54.950;26.362;2022-08-19T00:23:01;997.7;;;20.6;78.7
43181;BME280;28798;54.950;26.362;2022-08-19T00:27:51;997.7;;;20.5;78.8
43181;BME280;28798;54.950;26.362;2022-08-19T00:37:59;997.7;;;20.4;78.9
43181;BME280;28798;54.950;26.362;2022-08-19T00:42:51;997.8;;;20.3;79
43181;BME280;28798;54.950;26.362;2022-08-19T00:47:51;997.8;;;20.2;79
43181;BME280;28798;54.950;26.362;2022-08-19T00:53:09;997.8;;;20.2;79
43181;BME280;28798;54.950;26.362;2022-08-19T00:57:52;997.8;;;20.1;79.8
43181;BME280;28798;54.950;26.362;2022-08-19T01:02:57;997.8;;;20;79.5
43181;BME280;28798;54.950;26.362;2022-08-19T01:07:51;997.9;;;20;79.4
43181;BME280;28798;54.950;26.362;2022-08-19T01:12:59;997.9;;;20;79.4
43181;BME280;28798;54.950;26.362;2022-08-19T01:18:07;998;;;19.9;79.3
43181;BME280;28798;54.950;26.362;2022-08-19T01:22:56;998;;;19.9;79.3
43181;BME280;28798;54.950;26.362;2022-08-19T01:28:03;998;;;19.9;79.3
43181;BME280;28798;54.950;26.362;2022-08-19T01:42:51;997.7;;;19.6;79.8
43181;BME280;28798;54.950;26.362;2022-08-19T01:48:09;997.7;;;19.6;79.8
43181;BME280;28798;54.950;26.362;2022-08-19T01:52:57;997.7;;;19.4;80.1
43181;BME280;28798;54.950;26.362;2022-08-19T01:58:05;997.7;;;19.4;80.1
43181;BME280;28798;54.950;26.362;2022-08-19T02:07:51;997.8;;;19.4;80.7
43181;BME280;28798;54.950;26.362;2022-08-19T02:12:51;997.8;;;19.3;80.2
43181;BME280;28798;54.950;26.362;2022-08-19T02:17:51;997.9;;;19.2;80.9
43181;BME280;28798;54.950;26.362;2022-08-19T02:22:59;997.9;;;19.2;80.9
43181;BME280;28798;54.950;26.362;2022-08-19T02:28:13;998;;;19.1;80.8
43181;BME280;28798;54.950;26.362;2022-08-19T02:32:59;998;;;19.1;80.8
43181;BME280;28798;54.950;26.362;2022-08-19T02:37:59;998;;;18.8;82
43181;BME280;28798;54.950;26.362;2022-08-19T02:43:07;998;;;18.8;82
43181;BME280;28798;54.950;26.362;2022-08-19T02:47:57;998;;;18.7;82.1
43181;BME280;28798;54.950;26.362;2022-08-19T02:52:51;998;;;18.7;82.1
43181;BME280;28798;54.950;26.362;2022-08-19T02:58:01;998.1;;;18.6;82.4
43181;BME280;28798;54.950;26.362;2022-08-19T03:07:51;998.3;;;18.5;83.3
43181;BME280;28798;54.950;26.362;2022-08-19T03:12:51;998.3;;;18.4;83.5
43181;BME280;28798;54.950;26.362;2022-08-19T03:17:51;998.4;;;18.4;83.9
43181;BME280;28798;54.950;26.362;2022-08-19T03:22:59;998.4;;;18.4;83.9
43181;BME280;28798;54.950;26.362;2022-08-19T03:27:51;998.5;;;18.4;84.3
43181;BME280;28798;54.950;26.362;2022-08-19T03:37:51;998.5;;;18.3;84.2
43181;BME280;28798;54.950;26.362;2022-08-19T03:43:01;998.5;;;18.3;85
43181;BME280;28798;54.950;26.362;2022-08-19T03:48:01;998.6;;;18.3;84.8
43181;BME280;28798;54.950;26.362;2022-08-19T03:52:59;998.6;;;18.3;85.7
43181;BME280;28798;54.950;26.362;2022-08-19T03:57:59;998.7;;;18.3;85.8
43181;BME280;28798;54.950;26.362;2022-08-19T04:02:57;998.8;;;18.4;86.7
43181;BME280;28798;54.950;26.362;2022-08-19T04:08:09;998.8;;;18.4;86.7
43181;BME280;28798;54.950;26.362;2022-08-19T04:13:07;998.9;;;18.3;87.1
43181;BME280;28798;54.950;26.362;2022-08-19T04:17:51;998.9;;;18.3;87.1
43181;BME280;28798;54.950;26.362;2022-08-19T04:22:57;999;;;18.4;86.8
43181;BME280;28798;54.950;26.362;2022-08-19T04:27:57;999;;;18.3;87.9
43181;BME280;28798;54.950;26.362;2022-08-19T04:43:07;999;;;18.4;88.4
43181;BME280;28798;54.950;26.362;2022-08-19T04:48:01;999;;;18.4;89.3
43181;BME280;28798;54.950;26.362;2022-08-19T04:52:51;999;;;18.4;89.4
43181;BME280;28798;54.950;26.362;2022-08-19T04:58:01;999;;;18.4;89.4
43181;BME280;28798;54.950;26.362;2022-08-19T05:07:51;999.1;;;18.8;92.1
43181;BME280;28798;54.950;26.362;2022-08-19T05:12:59;999.1;;;18.9;91.7
43181;BME280;28798;54.950;26.362;2022-08-19T05:17:51;999.1;;;18.9;91.7
43181;BME280;28798;54.950;26.362;2022-08-19T05:22:51;999;;;19.1;91.1
43181;BME280;28798;54.950;26.362;2022-08-19T05:28:11;999.1;;;19.2;91.9
43181;BME280;28798;54.950;26.362;2022-08-19T05:32:51;999.2;;;19.4;91.5
43181;BME280;28798;54.950;26.362;2022-08-19T05:37:57;999.2;;;19.4;91.4
43181;BME280;28798;54.950;26.362;2022-08-19T05:43:05;999.2;;;19.5;90.5
43181;BME280;28798;54.950;26.362;2022-08-19T05:47:51;999.2;;;19.6;89.1
43181;BME280;28798;54.950;26.362;2022-08-19T05:52:51;999.1;;;19.7;88.7
43181;BME280;28798;54.950;26.362;2022-08-19T05:57:59;999.2;;;19.9;87.4
43181;BME280;28798;54.950;26.362;2022-08-19T06:07:51;999.3;;;20.3;85.6
43181;BME280;28798;54.950;26.362;2022-08-19T06:12:57;999.2;;;20.4;84.5
43181;BME280;28798;54.950;26.362;2022-08-19T06:18:15;999.2;;;20.4;84.5
43181;BME280;28798;54.950;26.362;2022-08-19T06:23:01;999.3;;;20.7;82
43181;BME280;28798;54.950;26.362;2022-08-19T06:27:51;999.3;;;20.9;83.2
43181;BME280;28798;54.950;26.362;2022-08-19T06:37:51;999.4;;;21.2;82
43181;BME280;28798;54.950;26.362;2022-08-19T06:42:51;999.3;;;21.4;81.4
43181;BME280;28798;54.950;26.362;2022-08-19T06:47:51;999.3;;;21.7;80.8
43181;BME280;28798;54.950;26.362;2022-08-19T06:52:51;999.3;;;22.1;79.2
43181;BME280;28798;54.950;26.362;2022-08-19T06:57:57;999.3;;;22.5;77
43181;BME280;28798;54.950;26.362;2022-08-19T07:07:51;999.4;;;23;74.1
43181;BME280;28798;54.950;26.362;2022-08-19T07:12:51;999.4;;;23.2;73.2
43181;BME280;28798;54.950;26.362;2022-08-19T07:17:51;999.3;;;23.4;69.6
43181;BME280;28798;54.950;26.362;2022-08-19T07:22:57;999.3;;;23.6;71.6
43181;BME280;28798;54.950;26.362;2022-08-19T07:27:59;999.2;;;23.9;67.6
43181;BME280;28798;54.950;26.362;2022-08-19T07:37:51;999.2;;;24.4;68.3
43181;BME280;28798;54.950;26.362;2022-08-19T07:43:13;999.1;;;24.6;67.5
43181;BME280;28798;54.950;26.362;2022-08-19T07:47:51;999.1;;;24.9;65.3
43181;BME280;28798;54.950;26.362;2022-08-19T07:53:11;999.1;;;25.2;64.8
43181;BME280;28798;54.950;26.362;2022-08-19T07:58:09;999.1;;;25.4;63.3
43181;BME280;28798;54.950;26.362;2022-08-19T08:08:03;999.1;;;25.7;61.8
43181;BME280;28798;54.950;26.362;2022-08-19T08:12:57;999.1;;;25.9;61.9
43181;BME280;28798;54.950;26.362;2022-08-19T08:17:51;999;;;26.1;59.8
43181;BME280;28798;54.950;26.362;2022-08-19T08:22:51;999;;;26.1;59.8
43181;BME280;28798;54.950;26.362;2022-08-19T08:27:59;999.1;;;26.6;57.6
43181;BME280;28798;54.950;26.362;2022-08-19T08:37:52;999;;;26.9;56.5
43181;BME280;28798;54.950;26.362;2022-08-19T08:42:55;999.1;;;27;55
43181;BME280;28798;54.950;26.362;2022-08-19T08:48:02;999;;;27.1;55
43181;BME280;28798;54.950;26.362;2022-08-19T08:52:52;999;;;27.3;53.5
43181;BME280;28798;54.950;26.362;2022-08-19T08:57:59;999;;;27.3;53.5
43181;BME280;28798;54.950;26.362;2022-08-19T09:08:08;999;;;27.8;51.6
43181;BME280;28798;54.950;26.362;2022-08-19T09:13:04;998.9;;;28;51.6
43181;BME280;28798;54.950;26.362;2022-08-19T09:18:00;998.8;;;28.3;51.3
43181;BME280;28798;54.950;26.362;2022-08-19T09:22:51;998.8;;;28.3;51.3
43181;BME280;28798;54.950;26.362;2022-08-19T09:27:52;998.8;;;28.8;49.5
43181;BME280;28798;54.950;26.362;2022-08-19T09:37:51;998.6;;;28.9;47.8
43181;BME280;28798;54.950;26.362;2022-08-19T09:42:51;998.6;;;29.3;46.8
43181;BME280;28798;54.950;26.362;2022-08-19T09:47:51;998.7;;;29.3;47.8
43181;BME280;28798;54.950;26.362;2022-08-19T09:53:03;998.7;;;29.3;46.4
43181;BME280;28798;54.950;26.362;2022-08-19T09:58:00;998.6;;;29.3;46.3
43181;BME280;28798;54.950;26.362;2022-08-19T10:02:51;998.7;;;29.2;43.7
43181;BME280;28798;54.950;26.362;2022-08-19T10:08:05;998.6;;;29.2;43.8
43181;BME280;28798;54.950;26.362;2022-08-19T10:12:51;998.6;;;29.2;43.4
43181;BME280;28798;54.950;26.362;2022-08-19T10:18:01;998.6;;;29.2;43.4
43181;BME280;28798;54.950;26.362;2022-08-19T10:22:51;998.6;;;29.7;43.5
43181;BME280;28798;54.950;26.362;2022-08-19T10:27:51;998.6;;;29.7;43.5
43181;BME280;28798;54.950;26.362;2022-08-19T10:37:51;998.5;;;30;44.7
43181;BME280;28798;54.950;26.362;2022-08-19T10:43:05;998.5;;;29.9;43.8
43181;BME280;28798;54.950;26.362;2022-08-19T10:47:59;998.6;;;29.7;44.2
43181;BME280;28798;54.950;26.362;2022-08-19T10:52:51;998.6;;;29.8;43.2
43181;BME280;28798;54.950;26.362;2022-08-19T10:57:59;998.6;;;29.5;43.3
43181;BME280;28798;54.950;26.362;2022-08-19T11:08:07;998.6;;;29.3;43.6
43181;BME280;28798;54.950;26.362;2022-08-19T11:12:51;998.6;;;28.9;43.6
43181;BME280;28798;54.950;26.362;2022-08-19T11:18:03;998.6;;;28.8;45.2
43181;BME280;28798;54.950;26.362;2022-08-19T11:22:52;998.6;;;28.8;45.2
43181;BME280;28798;54.950;26.362;2022-08-19T11:27:57;998.6;;;28.6;47.3
43181;BME280;28798;54.950;26.362;2022-08-19T12:02:57;998.6;;;28.5;42.9
43181;BME280;28798;54.950;26.362;2022-08-19T12:07:51;998.5;;;28.2;45.2
43181;BME280;28798;54.950;26.362;2022-08-19T12:13:01;998.5;;;28.2;45.2
43181;BME280;28798;54.950;26.362;2022-08-19T12:18:07;998.5;;;28.2;45.2
43181;BME280;28798;54.950;26.362;2022-08-19T12:22:57;998.5;;;28.2;45.2
43181;BME280;28798;54.950;26.362;2022-08-19T12:28:11;998.3;;;28.2;46
43181;BME280;28798;54.950;26.362;2022-08-19T12:32:59;998.3;;;28.2;45.1
43181;BME280;28798;54.950;26.362;2022-08-19T12:38:07;998.3;;;28.1;44.7
43181;BME280;28798;54.950;26.362;2022-08-19T12:42:57;998.3;;;28;45
43181;BME280;28798;54.950;26.362;2022-08-19T12:47:51;998.3;;;28;44.4
43181;BME280;28798;54.950;26.362;2022-08-19T12:52:51;998.2;;;28;43.2
43181;BME280;28798;54.950;26.362;2022-08-19T12:58:02;998.2;;;28;44.1
43181;BME280;28798;54.950;26.362;2022-08-19T13:03:02;998.2;;;28;44.1
43181;BME280;28798;54.950;26.362;2022-08-19T13:07:52;998;;;27.9;44.1
43181;BME280;28798;54.950;26.362;2022-08-19T13:12:51;998.1;;;27.8;43.8
43181;BME280;28798;54.950;26.362;2022-08-19T13:17:57;998;;;27.9;43.3
43181;BME280;28798;54.950;26.362;2022-08-19T13:23:05;997.9;;;27.9;44.7
43181;BME280;28798;54.950;26.362;2022-08-19T13:27:59;997.8;;;27.8;45.4
43181;BME280;28798;54.950;26.362;2022-08-19T13:38:07;997.8;;;27.8;46.8
43181;BME280;28798;54.950;26.362;2022-08-19T13:43:02;997.7;;;27.7;45.9
43181;BME280;28798;54.950;26.362;2022-08-19T13:48:07;997.5;;;27.6;44.4
43181;BME280;28798;54.950;26.362;2022-08-19T13:52:51;997.5;;;27.6;44.4
43181;BME280;28798;54.950;26.362;2022-08-19T13:57:58;997.5;;;27.6;44.4
43181;BME280;28798;54.950;26.362;2022-08-19T14:07:51;997.5;;;27.5;46.9
43181;BME280;28798;54.950;26.362;2022-08-19T14:13:07;997.6;;;27.6;46.2
43181;BME280;28798;54.950;26.362;2022-08-19T14:17:52;997.6;;;27.5;46.4
43181;BME280;28798;54.950;26.362;2022-08-19T14:22:57;997.6;;;27.5;48.4
43181;BME280;28798;54.950;26.362;2022-08-19T14:27:51;997.6;;;27.5;47.7
43181;BME280;28798;54.950;26.362;2022-08-19T14:38:03;997.8;;;27.3;49.4
43181;BME280;28798;54.950;26.362;2022-08-19T14:42:52;997.8;;;27.2;50.4
43181;BME280;28798;54.950;26.362;2022-08-19T14:47:57;997.8;;;27.2;51
43181;BME280;28798;54.950;26.362;2022-08-19T14:53:01;997.9;;;27.2;49.8
43181;BME280;28798;54.950;26.362;2022-08-19T14:57:51;997.8;;;27.1;49.5
43181;BME280;28798;54.950;26.362;2022-08-19T15:02:51;997.9;;;27.1;50.1
43181;BME280;28798;54.950;26.362;2022-08-19T15:07:51;997.9;;;27.1;50.7
43181;BME280;28798;54.950;26.362;2022-08-19T15:12:51;998;;;27;51
43181;BME280;28798;54.950;26.362;2022-08-19T15:17:57;998.1;;;26.9;51.2
43181;BME280;28798;54.950;26.362;2022-08-19T15:22:57;998.1;;;26.9;51
43181;BME280;28798;54.950;26.362;2022-08-19T15:28:01;998.1;;;26.9;50.9
43181;BME280;28798;54.950;26.362;2022-08-19T15:37:57;998.1;;;26.6;53.4
43181;BME280;28798;54.950;26.362;2022-08-19T15:42:51;998.1;;;26.6;54.4
43181;BME280;28798;54.950;26.362;2022-08-19T15:47:51;998.1;;;26.5;54
43181;BME280;28798;54.950;26.362;2022-08-19T15:52:53;998.2;;;26.5;54
43181;BME280;28798;54.950;26.362;2022-08-19T15:58:02;998.2;;;26.5;53.8
43181;BME280;28798;54.950;26.362;2022-08-19T16:07:51;998.2;;;26.6;53.1
43181;BME280;28798;54.950;26.362;2022-08-19T16:13:05;998.2;;;26.6;54.2
43181;BME280;28798;54.950;26.362;2022-08-19T16:17:51;998.2;;;26.5;54.6
43181;BME280;28798;54.950;26.362;2022-08-19T16:22:51;998.2;;;26.6;54.2
43181;BME280;28798;54.950;26.362;2022-08-19T16:27:58;998.2;;;26.5;54.1
43181;BME280;28798;54.950;26.362;2022-08-19T16:32:51;998.3;;;26.5;54.2
43181;BME280;28798;54.950;26.362;2022-08-19T16:37:57;998.4;;;26.5;54.3
43181;BME280;28798;54.950;26.362;2022-08-19T16:42:59;998.4;;;26.5;54.3
43181;BME280;28798;54.950;26.362;2022-08-19T16:47:51;998.4;;;26.3;54.6
43181;BME280;28798;54.950;26.362;2022-08-19T16:52:51;998.4;;;26.1;55.4
43181;BME280;28798;54.950;26.362;2022-08-19T16:58:03;998.4;;;25.9;56.2
43181;BME280;28798;54.950;26.362;2022-08-19T17:12:51;998.5;;;25.5;56.1
43181;BME280;28798;54.950;26.362;2022-08-19T17:18:07;998.6;;;25.1;57.2
43181;BME280;28798;54.950;26.362;2022-08-19T17:22:51;998.6;;;24.9;57.6
43181;BME280;28798;54.950;26.362;2022-08-19T17:28:01;998.6;;;24.7;58.8
43181;BME280;28798;54.950;26.362;2022-08-19T17:43:05;998.8;;;24;59.8
43181;BME280;28798;54.950;26.362;2022-08-19T17:47:51;998.8;;;23.9;60
43181;BME280;28798;54.950;26.362;2022-08-19T17:52:51;998.9;;;23.7;60.1
43181;BME280;28798;54.950;26.362;2022-08-19T17:57:51;998.8;;;23.5;60.9
43181;BME280;28798;54.950;26.362;2022-08-19T18:03:00;998.9;;;23.4;61.4
43181;BME280;28798;54.950;26.362;2022-08-19T18:07:57;999;;;23.3;61.6
43181;BME280;28798;54.950;26.362;2022-08-19T18:12:51;999;;;23.3;61.6
43181;BME280;28798;54.950;26.362;2022-08-19T18:17:57;999.1;;;23;63.3
43181;BME280;28798;54.950;26.362;2022-08-19T18:22:51;999.1;;;23;63.3
43181;BME280;28798;54.950;26.362;2022-08-19T18:28:03;999.1;;;22.7;64.4
43181;BME280;28798;54.950;26.362;2022-08-19T18:37:58;999.2;;;22.4;65.3
43181;BME280;28798;54.950;26.362;2022-08-19T18:42:57;999.2;;;22.3;65.4
43181;BME280;28798;54.950;26.362;2022-08-19T18:47:51;999.1;;;22.1;66.1
43181;BME280;28798;54.950;26.362;2022-08-19T18:53:01;999.2;;;22.1;67.1
43181;BME280;28798;54.950;26.362;2022-08-19T18:57:57;999.1;;;22;67.3
43181;BME280;28798;54.950;26.362;2022-08-19T19:03:01;999.1;;;21.9;67.3
43181;BME280;28798;54.950;26.362;2022-08-19T19:07:51;999.1;;;21.7;67.7
43181;BME280;28798;54.950;26.362;2022-08-19T19:12:51;999.1;;;21.7;68
43181;BME280;28798;54.950;26.362;2022-08-19T19:17:59;999.1;;;21.7;68.1
43181;BME280;28798;54.950;26.362;2022-08-19T19:22:51;999.1;;;21.6;67.8
43181;BME280;28798;54.950;26.362;2022-08-19T19:27:51;999.1;;;21.5;67.9
43181;BME280;28798;54.950;26.362;2022-08-19T19:43:07;999;;;21.2;69.3
43181;BME280;28798;54.950;26.362;2022-08-19T19:47:57;999;;;21.1;69.3
43181;BME280;28798;54.950;26.362;2022-08-19T19:52:51;999;;;21.1;69.1
43181;BME280;28798;54.950;26.362;2022-08-19T19:57:57;999;;;21.1;69.1
43181;BME280;28798;54.950;26.362;2022-08-19T20:12:51;999;;;20.8;70.1
43181;BME280;28798;54.950;26.362;2022-08-19T20:17:58;999;;;20.7;70.4
43181;BME280;28798;54.950;26.362;2022-08-19T20:22:51;999;;;20.7;70.4
43181;BME280;28798;54.950;26.362;2022-08-19T20:27:51;999;;;20.5;71.1
43181;BME280;28798;54.950;26.362;2022-08-19T20:38:02;999;;;20.4;71.7
43181;BME280;28798;54.950;26.362;2022-08-19T20:42:51;999.1;;;20.4;71.6
43181;BME280;28798;54.950;26.362;2022-08-19T20:47:57;999.1;;;20.4;71.6
43181;BME280;28798;54.950;26.362;2022-08-19T20:52:51;999.2;;;20.1;71.8
43181;BME280;28798;54.950;26.362;2022-08-19T20:57:51;999.2;;;20.1;72.3
43181;BME280;28798;54.950;26.362;2022-08-19T21:07:57;999.2;;;20;72.6
43181;BME280;28798;54.950;26.362;2022-08-19T21:12:51;999.2;;;19.9;72.7
43181;BME280;28798;54.950;26.362;2022-08-19T21:18:01;999.2;;;19.9;72.7
43181;BME280;28798;54.950;26.362;2022-08-19T21:22:51;999;;;19.7;73
43181;BME280;28798;54.950;26.362;2022-08-19T21:28:09;999.1;;;19.6;73.8
43181;BME280;28798;54.950;26.362;2022-08-19T21:42:51;999.1;;;19.5;74.2
43181;BME280;28798;54.950;26.362;2022-08-19T21:47:51;999.1;;;19.5;74.2
43181;BME280;28798;54.950;26.362;2022-08-19T21:53:03;999.1;;;19.5;74.2
43181;BME280;28798;54.950;26.362;2022-08-19T21:57:55;999.1;;;19.5;74.2
43181;BME280;28798;54.950;26.362;2022-08-19T22:17:51;999;;;19.1;75.1
43181;BME280;28798;54.950;26.362;2022-08-19T22:22:59;999;;;19.1;75.1
43181;BME280;28798;54.950;26.362;2022-08-19T22:27:58;999;;;18.9;75.4
43181;BME280;28798;54.950;26.362;2022-08-19T22:38:00;999;;;18.8;75.7
43181;BME280;28798;54.950;26.362;2022-08-19T22:43:00;998.9;;;18.7;75.8
43181;BME280;28798;54.950;26.362;2022-08-19T22:47:51;998.9;;;18.7;75.8
43181;BME280;28798;54.950;26.362;2022-08-19T22:52:55;998.9;;;18.7;75.8
43181;BME280;28798;54.950;26.362;2022-08-19T22:58:01;998.9;;;18.6;75.6
43181;BME280;28798;54.950;26.362;2022-08-19T23:17:52;998.9;;;18.3;75.9
43181;BME280;28798;54.950;26.362;2022-08-19T23:22:57;998.8;;;18.2;75.9
43181;BME280;28798;54.950;26.362;2022-08-19T23:27:59;998.8;;;18.2;75.9
43181;BME280;28798;54.950;26.362;2022-08-19T23:37:51;999;;;18;76.3
43181;BME280;28798;54.950;26.362;2022-08-19T23:42:51;999;;;18;77.2
43181;BME280;28798;54.950;26.362;2022-08-19T23:47:55;999;;;17.9;77.3
43181;BME280;28798;54.950;26.362;2022-08-19T23:52:52;999;;;17.9;77.3
43181;BME280;28798;54.950;26.362;2022-08-19T23:58:02;999;;;17.8;78.2
